Time;durP1;ratioP1;P1;durP2;ratioP2;P2;SDS_P1;SDS_P2;PMS_P1;PMS_P2;Temp;Humidity;BMP_temperature;BMP_pressure;BME280_temperature;BME280_humidity;BME280_pressure;Samples;Min_cycle;Max_cycle;Signal;HPM_P1;HPM_P2
2023/02/23 00:05:37;;;;;;;0.20;0.10;;;11.00;99.90;;;;;;21024319;28;20413;-70
2023/02/23 00:15:42;;;;;;;0.20;0.10;;;11.00;99.90;;;;;;21022844;28;20410;-70
2023/02/23 00:25:46;;;;;;;0.20;0.10;;;11.00;99.90;;;;;;21040475;28;20389;-70
2023/02/23 00:35:51;;;;;;;0.20;0.10;;;10.80;99.90;;;;;;21050009;28;20412;-70
2023/02/23 00:45:57;;;;;;;0.20;0.00;;;10.70;99.90;;;;;;21017957;28;20431;-70
2023/02/23 00:56:04;;;;;;;0.20;0.07;;;10.70;99.90;;;;;;21049398;28;20495;-70
2023/02/23 01:06:09;;;;;;;0.20;0.10;;;10.70;99.90;;;;;;21040546;28;20399;-71
2023/02/23 01:16:17;;;;;;;0.20;0.10;;;10.40;99.90;;;;;;21037843;28;20404;-70
2023/02/23 01:26:23;;;;;;;0.20;0.00;;;10.30;99.90;;;;;;21070233;28;20729;-70
2023/02/23 01:36:29;;;;;;;0.20;0.10;;;10.10;99.90;;;;;;21162033;28;20406;-70
2023/02/23 01:46:35;;;;;;;0.20;0.10;;;9.60;99.90;;;;;;21058322;28;20398;-70
2023/02/23 01:56:45;;;;;;;0.20;0.10;;;9.70;99.90;;;;;;21041303;28;20412;-70
2023/02/23 02:06:52;;;;;;;0.20;0.10;;;9.40;99.90;;;;;;21034486;28;20400;-70
2023/02/23 02:17:24;;;;;;;0.20;0.10;;;9.30;99.90;;;;;;21070005;28;20418;-69
2023/02/23 02:27:51;;;;;;;0.20;0.07;;;9.60;99.90;;;;;;21074187;28;20463;-70
2023/02/23 02:38:11;;;;;;;0.20;0.00;;;9.80;99.90;;;;;;21070593;28;20465;-70
2023/02/23 02:48:24;;;;;;;0.20;0.00;;;9.90;99.90;;;;;;21019172;28;20777;-70
2023/02/23 02:58:29;;;;;;;0.20;0.10;;;10.20;99.90;;;;;;21072078;28;21150;-70
2023/02/23 04:21:51;;;;;;;0.20;0.10;;;9.30;99.90;;;;;;21064634;28;20906;-69
2023/02/23 04:31:55;;;;;;;0.20;0.10;;;9.20;99.90;;;;;;21045943;28;20400;-69
2023/02/23 04:42:00;;;;;;;0.20;0.10;;;9.20;99.90;;;;;;21062583;28;20407;-69
2023/02/23 04:52:04;;;;;;;0.20;0.10;;;9.20;99.90;;;;;;21063077;28;20411;-69
2023/02/23 05:02:10;;;;;;;0.20;0.10;;;9.20;99.90;;;;;;21041317;28;20854;-69
2023/02/23 05:12:14;;;;;;;0.20;0.10;;;9.00;99.90;;;;;;21035770;28;20392;-71
2023/02/23 05:22:19;;;;;;;0.20;0.10;;;9.20;99.90;;;;;;21060796;28;20450;-69
2023/02/23 05:32:23;;;;;;;0.20;0.10;;;9.30;99.90;;;;;;21042465;28;20481;-70
2023/02/23 05:42:28;;;;;;;0.20;0.10;;;9.60;99.90;;;;;;21041697;28;20439;-70
2023/02/23 05:52:32;;;;;;;0.20;0.00;;;9.70;99.90;;;;;;21041473;28;20868;-70
2023/02/23 06:02:37;;;;;;;0.20;0.10;;;9.80;99.90;;;;;;21058905;28;20507;-70
2023/02/23 06:12:41;;;;;;;0.20;0.10;;;10.10;99.90;;;;;;21059176;28;20404;-68
2023/02/23 06:22:46;;;;;;;0.20;0.00;;;9.90;99.90;;;;;;21055517;28;20913;-70
2023/02/23 06:32:51;;;;;;;0.20;0.10;;;9.80;99.90;;;;;;21073260;28;20436;-71
2023/02/23 06:42:57;;;;;;;0.20;0.00;;;9.60;99.90;;;;;;21052690;28;20945;-70
2023/02/23 06:53:00;;;;;;;0.20;0.10;;;9.50;99.90;;;;;;21049569;28;20411;-66
2023/02/23 07:03:08;;;;;;;0.20;0.07;;;9.60;99.90;;;;;;21064184;28;20425;-71
2023/02/23 07:13:12;;;;;;;0.20;0.10;;;9.70;99.90;;;;;;21050183;28;20486;-70
2023/02/23 07:23:17;;;;;;;0.20;0.10;;;9.80;99.90;;;;;;21050543;28;20412;-71
2023/02/23 07:33:21;;;;;;;0.20;0.00;;;9.90;99.90;;;;;;21066032;28;20396;-71
2023/02/23 07:43:27;;;;;;;0.20;0.10;;;10.40;99.90;;;;;;21065882;28;20408;-70
2023/02/23 07:53:31;;;;;;;0.20;0.10;;;10.90;99.90;;;;;;21063618;28;20400;-70
2023/02/23 08:03:36;;;;;;;0.20;0.10;;;11.40;99.90;;;;;;21057876;28;20959;-71
2023/02/23 08:13:40;;;;;;;0.20;0.00;;;11.70;99.90;;;;;;21124321;28;20898;-68
2023/02/23 08:23:45;;;;;;;0.20;0.10;;;12.00;99.90;;;;;;21144944;28;20841;-73
2023/02/23 08:33:49;;;;;;;0.20;0.10;;;12.30;99.90;;;;;;21108645;28;20493;-72
2023/02/23 08:43:55;;;;;;;0.20;0.10;;;12.50;99.90;;;;;;21133238;28;21130;-64
2023/02/23 08:53:59;;;;;;;0.20;0.10;;;12.80;99.90;;;;;;21117143;28;20495;-70
2023/02/23 09:04:04;;;;;;;0.20;0.10;;;13.10;99.90;;;;;;21125554;28;20410;-70
2023/02/23 09:14:08;;;;;;;0.20;0.00;;;13.50;99.90;;;;;;21073690;28;20465;-67
2023/02/23 09:24:14;;;;;;;0.20;0.00;;;13.80;99.90;;;;;;21118915;28;20512;-70
2023/02/23 09:34:17;;;;;;;0.20;0.00;;;14.20;99.90;;;;;;20946787;28;20404;-70
2023/02/23 09:44:37;;;;;;;0.20;0.10;;;14.50;99.90;;;;;;20903618;28;20430;-69
2023/02/23 09:54:41;;;;;;;0.20;0.10;;;15.00;99.90;;;;;;21039318;28;20454;-69
2023/02/23 10:04:49;;;;;;;0.20;0.10;;;15.40;99.90;;;;;;21036392;28;20424;-70
2023/02/23 10:15:18;;;;;;;0.20;0.10;;;15.20;99.90;;;;;;21015092;28;20413;-69
2023/02/23 10:25:27;;;;;;;0.20;0.10;;;15.40;99.90;;;;;;20979660;28;20418;-69
2023/02/23 10:35:32;;;;;;;0.20;0.10;;;15.60;99.90;;;;;;20962978;28;20390;-69
2023/02/23 10:45:43;;;;;;;0.20;0.00;;;15.70;99.90;;;;;;20981642;28;20417;-69
2023/02/23 10:55:59;;;;;;;0.20;0.00;;;15.60;99.90;;;;;;20965344;28;20433;-68
2023/02/23 11:06:05;;;;;;;0.20;0.10;;;15.90;99.90;;;;;;20981489;28;20390;-70
2023/02/23 11:16:12;;;;;;;0.20;0.10;;;15.90;99.90;;;;;;20964490;28;20402;-68
2023/02/23 11:26:30;;;;;;;0.20;0.05;;;15.80;99.90;;;;;;20976279;28;20406;-67
2023/02/23 11:36:35;;;;;;;0.20;0.10;;;15.40;99.90;;;;;;20959989;28;20412;-68
2023/02/23 11:46:44;;;;;;;0.20;0.00;;;15.60;99.90;;;;;;20958072;28;20490;-69
2023/02/23 11:56:51;;;;;;;0.20;0.10;;;15.20;99.90;;;;;;20959577;28;20405;-70
2023/02/23 12:07:12;;;;;;;0.20;0.00;;;15.30;99.90;;;;;;20977016;28;20402;-70
2023/02/23 12:17:23;;;;;;;0.20;0.00;;;15.30;99.90;;;;;;20956964;28;20885;-69
2023/02/23 12:27:35;;;;;;;0.20;0.10;;;14.90;99.90;;;;;;20971274;28;20472;-69
2023/02/23 12:37:42;;;;;;;0.20;0.00;;;14.60;99.90;;;;;;20972935;28;20915;-69
2023/02/23 12:47:52;;;;;;;0.20;0.10;;;14.20;99.90;;;;;;20974946;28;20402;-69
2023/02/23 12:58:05;;;;;;;0.20;0.10;;;13.90;99.90;;;;;;20981746;28;20413;-69
2023/02/23 13:08:20;;;;;;;0.20;0.10;;;14.10;99.90;;;;;;20956896;28;20390;-70
2023/02/23 13:18:29;;;;;;;0.20;0.10;;;14.40;99.90;;;;;;20974150;28;20397;-69
2023/02/23 13:28:42;;;;;;;0.20;0.10;;;14.50;99.90;;;;;;20907296;28;20888;-70
2023/02/23 13:39:00;;;;;;;0.20;0.10;;;14.70;99.90;;;;;;21004280;28;20428;-72
2023/02/23 13:49:27;;;;;;;0.20;0.10;;;14.80;99.90;;;;;;21055922;28;20415;-71
2023/02/23 13:59:38;;;;;;;0.20;0.00;;;15.10;99.90;;;;;;21074742;28;20459;-71
2023/02/23 14:09:53;;;;;;;0.20;0.03;;;15.40;99.90;;;;;;21037637;28;20400;-68
2023/02/23 14:20:14;;;;;;;0.20;0.10;;;15.20;99.90;;;;;;21050702;28;20413;-69
2023/02/23 14:30:48;;;;;;;0.20;0.10;;;14.90;99.90;;;;;;21037396;28;20410;-69
2023/02/23 14:40:55;;;;;;;0.20;0.10;;;15.10;99.90;;;;;;20977763;28;20440;-70
2023/02/23 14:51:15;;;;;;;0.20;0.00;;;15.10;99.90;;;;;;20965074;28;20753;-69
2023/02/23 15:01:36;;;;;;;0.20;0.10;;;15.10;99.90;;;;;;20976678;28;21281;-69
2023/02/23 15:11:44;;;;;;;0.20;0.08;;;15.00;99.90;;;;;;20977307;28;20406;-68
2023/02/23 15:21:53;;;;;;;0.20;0.10;;;14.80;99.90;;;;;;20979099;28;20864;-69
2023/02/23 15:32:15;;;;;;;0.20;0.03;;;14.80;99.90;;;;;;21058885;28;20409;-69
2023/02/23 15:42:24;;;;;;;0.20;0.10;;;14.80;99.90;;;;;;21057176;28;20451;-69
2023/02/23 15:52:31;;;;;;;0.20;0.10;;;15.00;99.90;;;;;;21052046;28;20574;-68
2023/02/23 16:02:37;;;;;;;0.20;0.10;;;14.90;99.90;;;;;;21030793;28;20412;-67
2023/02/23 16:12:46;;;;;;;0.20;0.10;;;14.60;99.90;;;;;;21035608;28;20404;-68
2023/02/23 16:22:52;;;;;;;0.20;0.10;;;14.50;99.90;;;;;;21012338;28;20516;-69
2023/02/23 16:33:07;;;;;;;0.20;0.10;;;14.20;99.90;;;;;;21010912;28;20390;-69
2023/02/23 16:43:11;;;;;;;0.20;0.10;;;14.20;99.90;;;;;;21012507;28;20790;-70
2023/02/23 16:53:17;;;;;;;0.20;0.10;;;14.30;99.90;;;;;;21019456;28;20920;-69
2023/02/23 17:03:23;;;;;;;0.20;0.10;;;14.20;99.90;;;;;;21031025;28;20412;-69
2023/02/23 17:13:32;;;;;;;0.20;0.10;;;14.10;99.90;;;;;;21031530;28;20400;-73
2023/02/23 17:23:41;;;;;;;0.20;0.10;;;14.00;99.90;;;;;;21046937;28;20432;-69
2023/02/23 17:33:47;;;;;;;0.20;0.00;;;14.00;99.90;;;;;;21029645;28;20442;-69
2023/02/23 17:43:51;;;;;;;0.20;0.10;;;13.70;99.90;;;;;;21013588;28;20402;-69
2023/02/23 17:53:57;;;;;;;0.20;0.10;;;13.90;99.90;;;;;;21000890;28;20403;-69
2023/02/23 18:04:01;;;;;;;0.20;0.10;;;13.80;99.90;;;;;;21014298;28;20416;-71
2023/02/23 18:14:06;;;;;;;0.20;0.10;;;13.80;99.90;;;;;;21046753;28;20795;-72
2023/02/23 18:24:12;;;;;;;0.20;0.00;;;13.90;99.90;;;;;;21070816;28;20830;-71
2023/02/23 18:34:18;;;;;;;0.20;0.10;;;13.60;99.90;;;;;;21050049;28;20397;-73
2023/02/23 18:44:22;;;;;;;0.20;0.00;;;13.70;99.90;;;;;;21032498;28;20850;-70
2023/02/23 18:54:27;;;;;;;0.20;0.00;;;13.60;99.90;;;;;;21065171;28;20411;-70
2023/02/23 19:04:31;;;;;;;0.20;0.10;;;13.60;99.90;;;;;;21045629;28;20530;-71
2023/02/23 19:14:37;;;;;;;0.20;0.10;;;13.80;99.90;;;;;;21044778;28;20488;-72
2023/02/23 19:24:52;;;;;;;0.20;0.10;;;13.70;99.90;;;;;;21140740;28;20439;-72
2023/02/23 19:34:57;;;;;;;0.20;0.10;;;13.50;99.90;;;;;;21119583;28;20433;-70
2023/02/23 19:45:01;;;;;;;0.20;0.00;;;13.50;99.90;;;;;;21096801;28;20414;-69
2023/02/23 19:55:09;;;;;;;0.20;0.10;;;13.40;99.90;;;;;;21144349;28;20748;-70
2023/02/23 20:05:14;;;;;;;0.20;0.10;;;13.20;99.90;;;;;;21160446;27;20463;-70
2023/02/23 20:15:20;;;;;;;0.20;0.13;;;13.00;99.90;;;;;;21085649;28;20485;-71
2023/02/23 20:25:25;;;;;;;0.20;0.10;;;12.90;99.90;;;;;;21142621;28;20420;-71
2023/02/23 20:35:31;;;;;;;0.20;0.10;;;13.00;99.90;;;;;;21140127;28;20410;-73
2023/02/23 20:45:35;;;;;;;0.20;0.03;;;13.00;99.90;;;;;;21136685;28;20426;-79
2023/02/23 20:55:41;;;;;;;0.20;0.00;;;13.10;99.90;;;;;;21124461;28;20399;-71
2023/02/23 21:05:46;;;;;;;0.20;0.10;;;13.00;99.90;;;;;;21123342;28;20414;-67
2023/02/23 21:15:59;;;;;;;0.20;0.10;;;13.10;99.90;;;;;;21140506;28;20494;-68
2023/02/23 21:26:13;;;;;;;0.20;0.10;;;13.20;99.90;;;;;;21119932;28;20509;-73
2023/02/23 21:36:18;;;;;;;0.20;0.10;;;13.10;99.90;;;;;;21117492;28;20402;-69
2023/02/23 21:46:22;;;;;;;0.20;0.10;;;13.10;99.90;;;;;;21142191;28;20505;-73
2023/02/23 21:56:28;;;;;;;0.20;0.10;;;13.00;99.90;;;;;;21154765;28;20394;-71
2023/02/23 22:06:37;;;;;;;0.20;0.10;;;12.90;99.90;;;;;;21138967;28;20769;-71
2023/02/23 22:16:42;;;;;;;0.20;0.00;;;12.80;99.90;;;;;;21157147;28;20513;-70
2023/02/23 22:26:53;;;;;;;0.20;0.10;;;13.00;99.90;;;;;;21107494;28;20412;-71
2023/02/23 22:37:03;;;;;;;0.20;0.10;;;13.20;99.90;;;;;;21050741;28;20779;-72
2023/02/23 22:47:07;;;;;;;0.20;0.10;;;13.10;99.90;;;;;;21050007;28;20404;-70
2023/02/23 22:57:12;;;;;;;0.20;0.10;;;13.10;99.90;;;;;;21042997;28;20396;-71
2023/02/23 23:07:18;;;;;;;0.20;0.10;;;13.00;99.90;;;;;;21053858;28;20422;-72
2023/02/23 23:17:24;;;;;;;0.20;0.10;;;13.10;99.90;;;;;;21059670;28;20405;-72
2023/02/23 23:27:27;;;;;;;0.20;0.00;;;13.10;99.90;;;;;;21050294;28;20492;-72
2023/02/23 23:37:33;;;;;;;0.20;0.00;;;13.20;99.90;;;;;;21098663;28;20395;-71
2023/02/23 23:47:37;;;;;;;0.20;0.10;;;13.30;99.90;;;;;;21120797;28;20411;-70
2023/02/23 23:57:42;;;;;;;0.20;0.10;;;13.60;99.90;;;;;;21029076;28;20396;-71
